Time;durP1;ratioP1;P1;durP2;ratioP2;P2;SDS_P1;SDS_P2;PMS_P1;PMS_P2;Temp;Humidity;BMP_temperature;BMP_pressure;BME280_temperature;BME280_humidity;BME280_pressure;Samples;Min_cycle;Max_cycle;Signal;HPM_P1;HPM_P2
2022/05/31 00:02:26;;;;;;;2.80;2.60;;;;;;;15.04;68.62;98858.48;104626;1277;61791;-24
2022/05/31 00:04:53;;;;;;;3.70;2.90;;;;;;;14.86;68.64;98863.09;104492;1278;75209;-23
2022/05/31 00:07:21;;;;;;;5.30;3.50;;;;;;;14.62;70.03;98871.18;104260;1278;76927;-23
2022/05/31 00:09:48;;;;;;;7.40;2.80;;;;;;;14.39;70.62;98875.42;104402;1278;75853;-24
2022/05/31 00:12:15;;;;;;;4.40;3.20;;;;;;;14.17;70.75;98883.39;104346;1277;61980;-24
2022/05/31 00:14:43;;;;;;;4.10;3.30;;;;;;;13.93;71.86;98890.41;104231;1281;62154;-24
2022/05/31 00:17:10;;;;;;;2.60;1.80;;;;;;;13.77;73.27;98894.55;104321;1278;73721;-24
2022/05/31 00:19:38;;;;;;;3.10;1.80;;;;;;;14.23;72.97;98890.80;104436;1278;77177;-24
2022/05/31 00:22:09;;;;;;;3.20;2.20;;;;;;;14.74;71.51;98885.02;104408;1280;73588;-24
2022/05/31 00:24:39;;;;;;;5.90;2.60;;;;;;;14.75;71.42;98879.69;104183;1278;62836;-25
2022/05/31 00:27:07;;;;;;;9.50;3.10;;;;;;;14.57;71.04;98873.60;104487;1278;61022;-25
2022/05/31 00:29:35;;;;;;;3.50;2.80;;;;;;;14.39;70.75;98868.12;104323;1281;74719;-24
2022/05/31 00:32:04;;;;;;;3.10;2.80;;;;;;;14.13;71.07;98869.59;104497;1278;76997;-24
2022/05/31 00:34:31;;;;;;;8.30;4.40;;;;;;;13.91;72.84;98877.36;103911;1280;73050;-24
2022/05/31 00:36:59;;;;;;;4.10;2.10;;;;;;;13.65;74.20;98891.51;104440;1277;63386;-24
2022/05/31 00:39:26;;;;;;;3.60;2.30;;;;;;;13.94;73.82;98897.25;104253;1278;63034;-24
2022/05/31 00:42:02;;;;;;;2.20;2.00;;;;;;;14.27;72.20;98898.95;104607;1278;75924;-24
2022/05/31 00:44:30;;;;;;;6.10;2.90;;;;;;;14.26;71.96;98902.73;104489;1278;76946;-24
2022/05/31 00:47:03;;;;;;;7.10;3.10;;;;;;;14.14;72.12;98898.28;104529;1281;75241;-24
2022/05/31 00:49:36;;;;;;;3.90;3.10;;;;;;;13.97;72.42;98894.42;104412;1277;63228;-24
2022/05/31 00:52:11;;;;;;;6.30;2.90;;;;;;;13.81;72.95;98896.78;104254;1280;61851;-24
2022/05/31 00:54:43;;;;;;;4.20;3.00;;;;;;;13.65;73.29;98890.65;104407;1274;74515;-24
2022/05/31 00:57:11;;;;;;;3.00;1.60;;;;;;;13.55;73.48;98889.87;104325;1274;77012;-24
2022/05/31 00:59:46;;;;;;;2.10;1.80;;;;;;;14.09;73.46;98894.42;104602;1274;74352;-24
2022/05/31 01:02:17;;;;;;;2.40;2.00;;;;;;;14.68;71.92;98900.31;104355;1275;63107;-25
2022/05/31 01:05:00;;;;;;;3.00;2.50;;;;;;;14.66;71.59;98901.08;104694;1274;61827;-24
2022/05/31 01:07:27;;;;;;;4.00;2.30;;;;;;;14.36;72.33;98901.21;104601;1274;75577;-24
2022/05/31 01:09:55;;;;;;;3.50;2.30;;;;;;;14.12;72.97;98902.17;104679;1274;77226;-24
2022/05/31 01:12:42;;;;;;;5.80;3.10;;;;;;;13.82;73.99;98904.08;104631;1274;75570;-24
2022/05/31 01:15:28;;;;;;;1.90;1.60;;;;;;;13.59;74.56;98897.55;104606;1274;62346;-24
2022/05/31 01:18:14;;;;;;;2.80;1.70;;;;;;;14.14;74.18;98892.95;104680;1274;61967;-24
2022/05/31 01:21:00;;;;;;;2.40;2.20;;;;;;;14.54;73.48;98885.48;104865;1274;74809;-25
2022/05/31 01:24:20;;;;;;;5.80;2.50;;;;;;;14.45;72.83;98884.56;104787;1274;77115;-24
2022/05/31 01:26:52;;;;;;;5.10;2.50;;;;;;;14.22;73.73;98890.52;104512;1274;74261;-24
2022/05/31 01:29:23;;;;;;;3.40;3.00;;;;;;;14.03;73.68;98888.23;104600;1275;63100;-24
2022/05/31 01:31:59;;;;;;;3.80;2.90;;;;;;;13.75;73.14;98881.48;104668;1274;61821;-24
2022/05/31 01:34:31;;;;;;;2.70;2.00;;;;;;;13.51;73.79;98882.30;104666;1277;74837;-24
2022/05/31 01:36:59;;;;;;;5.20;2.80;;;;;;;13.95;74.64;98879.89;104765;1274;76520;-24
2022/05/31 01:39:40;;;;;;;13.30;5.70;;;;;;;14.44;73.39;98877.23;104653;1275;73298;-24
2022/05/31 01:42:44;;;;;;;28.30;12.50;;;;;;;14.48;73.16;98878.95;104513;1277;63235;-24
2022/05/31 01:45:26;;;;;;;37.60;17.30;;;;;;;14.16;73.83;98877.66;104684;1274;61905;-24
2022/05/31 01:47:56;;;;;;;22.80;11.50;;;;;;;13.80;74.45;98886.08;104708;1274;75657;-25
2022/05/31 01:50:24;;;;;;;21.20;11.10;;;;;;;13.63;75.35;98887.79;104433;1274;77065;-24
2022/05/31 01:52:51;;;;;;;14.70;5.90;;;;;;;13.47;75.71;98886.42;105017;1274;73907;-24
2022/05/31 01:55:20;;;;;;;9.70;6.00;;;;;;;13.88;75.76;98897.06;104814;1274;63239;-24
2022/05/31 01:57:55;;;;;;;9.00;4.80;;;;;;;14.32;74.13;98903.70;104830;1274;62386;-24
2022/05/31 02:00:23;;;;;;;8.40;5.30;;;;;;;14.32;73.59;98902.65;104677;1274;74639;-25
2022/05/31 02:02:54;;;;;;;9.10;5.60;;;;;;;14.19;73.71;98898.23;104648;1274;76034;-24
2022/05/31 02:05:21;;;;;;;10.40;6.10;;;;;;;14.00;73.98;98902.60;104723;1274;75753;-24
2022/05/31 02:07:58;;;;;;;8.70;5.60;;;;;;;13.71;74.47;98910.33;104436;1274;61993;-24
2022/05/31 02:10:25;;;;;;;6.40;3.70;;;;;;;13.49;75.40;98923.09;104523;1274;61915;-24
2022/05/31 02:12:53;;;;;;;9.90;5.60;;;;;;;13.82;75.61;98929.73;104649;1275;74866;-24
2022/05/31 02:15:35;;;;;;;11.60;6.80;;;;;;;14.29;74.15;98933.34;104716;1274;75354;-24
2022/05/31 02:18:22;;;;;;;9.40;5.40;;;;;;;14.28;73.79;98934.52;104716;1274;75442;-23
2022/05/31 02:21:35;;;;;;;6.90;4.40;;;;;;;14.01;73.97;98936.23;104067;1280;62077;-24
2022/05/31 02:24:10;;;;;;;4.60;3.50;;;;;;;13.74;74.44;98936.59;103809;1280;61959;-23
2022/05/31 02:26:40;;;;;;;4.90;3.90;;;;;;;13.47;75.04;98942.48;104109;1277;75774;-24
2022/05/31 02:29:10;;;;;;;6.50;2.50;;;;;;;13.26;75.86;98939.34;104518;1274;76929;-23
2022/05/31 02:31:37;;;;;;;3.70;2.70;;;;;;;13.73;76.24;98936.14;104645;1275;74310;-24
2022/05/31 02:34:05;;;;;;;5.40;3.20;;;;;;;14.30;74.69;98934.43;104668;1277;61716;-24
2022/05/31 02:36:34;;;;;;;4.00;3.00;;;;;;;14.37;74.09;98935.34;104764;1274;62121;-23
2022/05/31 02:39:01;;;;;;;5.50;3.80;;;;;;;14.22;74.49;98935.41;104403;1277;74742;-24
2022/05/31 02:41:35;;;;;;;;;;;;;;;14.02;75.06;98934.77;104485;1275;76875;-23
2022/05/31 02:44:03;;;;;;;4.60;3.60;;;;;;;13.75;75.76;98935.23;104603;1274;73811;-23
2022/05/31 02:46:30;;;;;;;4.80;2.90;;;;;;;13.53;76.86;98941.34;104664;1274;63127;-23
2022/05/31 02:48:59;;;;;;;5.40;2.60;;;;;;;13.94;76.80;98943.71;104680;1274;62045;-24
2022/05/31 02:51:27;;;;;;;8.70;3.50;;;;;;;14.46;75.09;98947.39;104567;1277;73622;-24
2022/05/31 02:53:54;;;;;;;5.30;3.80;;;;;;;14.56;74.41;98952.90;104740;1274;75741;-23
2022/05/31 02:56:30;;;;;;;5.60;3.90;;;;;;;14.42;74.37;98953.84;104376;1274;75536;-24
2022/05/31 02:59:17;;;;;;;8.00;4.50;;;;;;;14.11;74.92;98959.88;104446;1274;63371;-24
2022/05/31 03:02:05;;;;;;;6.90;5.20;;;;;;;13.79;75.47;98970.07;105090;1274;61977;-24
2022/05/31 03:04:51;;;;;;;5.10;2.90;;;;;;;13.62;76.73;98972.48;105118;1271;75927;-23
2022/05/31 03:07:36;;;;;;;5.90;3.80;;;;;;;14.29;75.91;98974.39;105127;1271;75983;-24
2022/05/31 03:10:09;;;;;;;11.00;4.30;;;;;;;14.76;73.89;98977.35;105049;1271;74183;-24
2022/05/31 03:12:36;;;;;;;7.70;4.60;;;;;;;14.73;73.52;98978.51;104737;1274;63302;-23
2022/05/31 03:15:08;;;;;;;7.70;4.80;;;;;;;14.49;73.65;98981.70;105019;1274;62851;-23
2022/05/31 03:17:41;;;;;;;8.00;4.30;;;;;;;14.11;74.92;98992.70;104778;1271;74718;-24
2022/05/31 03:20:16;;;;;;;7.90;4.50;;;;;;;13.74;75.47;99006.55;104734;1274;77504;-24
2022/05/31 03:23:04;;;;;;;4.80;2.80;;;;;;;13.51;75.69;99011.42;104873;1271;74251;-23
2022/05/31 03:25:32;;;;;;;4.90;3.20;;;;;;;14.08;74.86;98988.12;104907;1271;62040;-24
2022/05/31 03:28:00;;;;;;;7.00;3.50;;;;;;;14.49;73.53;98984.32;105095;1271;62123;-24
2022/05/31 03:30:28;;;;;;;4.80;3.80;;;;;;;14.49;73.99;98995.67;104967;1274;74694;-24
2022/05/31 03:32:56;;;;;;;4.30;3.90;;;;;;;14.36;74.37;98993.05;104787;1271;76305;-23
2022/05/31 03:35:24;;;;;;;7.50;4.20;;;;;;;14.18;74.54;98990.83;104678;1274;75156;-23
2022/05/31 03:37:52;;;;;;;19.00;11.90;;;;;;;13.99;75.04;98994.58;104815;1271;61676;-23
2022/05/31 03:43:23;;;;;;;16.00;9.90;;;;;;;14.44;75.04;98994.71;104942;1271;75631;-24
2022/05/31 03:46:23;;;;;;;29.00;18.40;;;;;;;14.97;73.48;98999.45;104865;1271;76035;-24
2022/05/31 03:48:59;;;;;;;38.50;23.40;;;;;;;14.92;73.18;99002.44;104896;1272;74290;-25
2022/05/31 03:51:32;;;;;;;22.40;14.00;;;;;;;14.74;73.13;99000.76;104707;1271;62405;-24
2022/05/31 03:54:05;;;;;;;14.50;9.00;;;;;;;14.51;73.37;99004.15;104774;1271;62106;-24
2022/05/31 03:56:51;;;;;;;15.30;10.10;;;;;;;14.29;73.96;98999.89;104649;1272;74526;-24
2022/05/31 03:59:19;;;;;;;13.10;6.20;;;;;;;14.11;74.94;98999.64;104758;1272;75953;-24
2022/05/31 04:01:46;;;;;;;9.80;6.60;;;;;;;14.58;74.72;99000.55;104699;1274;73214;-24
2022/05/31 04:04:14;;;;;;;12.10;8.20;;;;;;;15.16;72.16;98996.95;104868;1271;61996;-24
2022/05/31 04:06:42;;;;;;;13.50;9.20;;;;;;;15.08;70.62;98996.64;104789;1271;61740;-24
2022/05/31 04:09:09;;;;;;;9.00;6.60;;;;;;;14.91;71.72;98997.99;104791;1271;75511;-24
2022/05/31 04:11:37;;;;;;;6.10;4.90;;;;;;;14.70;72.13;99003.97;104774;1271;75775;-26
2022/05/31 04:14:09;;;;;;;5.80;5.00;;;;;;;14.49;72.43;99020.44;104889;1271;73863;-24
2022/05/31 04:16:45;;;;;;;7.40;5.80;;;;;;;14.36;73.22;99026.80;105086;1271;61740;-24
2022/05/31 04:19:13;;;;;;;4.70;3.60;;;;;;;14.24;73.19;99029.34;105006;1271;61141;-25
2022/05/31 04:21:41;;;;;;;7.20;4.40;;;;;;;14.70;72.98;99024.16;104731;1271;75784;-24
2022/05/31 04:24:09;;;;;;;5.70;4.40;;;;;;;15.20;71.01;99014.48;104815;1271;75636;-25
2022/05/31 04:26:45;;;;;;;5.20;3.70;;;;;;;15.13;70.81;99009.82;104765;1271;73231;-25
2022/05/31 04:29:32;;;;;;;4.20;3.30;;;;;;;14.84;71.20;99027.57;104626;1272;63004;-24
2022/05/31 04:32:19;;;;;;;4.60;3.50;;;;;;;14.55;72.04;99043.96;104752;1271;62199;-24
2022/05/31 04:34:57;;;;;;;4.20;3.50;;;;;;;14.36;72.76;99050.55;104688;1272;75030;-24
2022/05/31 04:37:25;;;;;;;3.10;1.90;;;;;;;14.20;73.10;99052.24;104686;1271;77056;-24
2022/05/31 04:40:09;;;;;;;9.70;4.40;;;;;;;14.67;73.14;99055.08;104762;1271;73481;-24
2022/05/31 04:42:41;;;;;;;11.90;7.50;;;;;;;15.16;71.66;99060.39;104877;1271;63122;-25
2022/05/31 04:45:41;;;;;;;14.70;7.10;;;;;;;15.17;71.49;99062.72;104533;1271;62891;-25
2022/05/31 04:48:33;;;;;;;5.90;4.20;;;;;;;14.99;71.94;99077.30;104756;1272;75526;-24
2022/05/31 04:51:00;;;;;;;5.10;3.70;;;;;;;14.81;71.85;99078.20;104769;1271;75085;-24
2022/05/31 04:53:34;;;;;;;;;;;;;;;14.60;72.32;99085.44;104772;1272;75757;-25
2022/05/31 04:56:19;;;;;;;3.70;3.10;;;;;;;14.41;72.94;99087.10;104764;1271;63022;-24
2022/05/31 04:58:50;;;;;;;5.30;2.00;;;;;;;14.29;73.55;99084.55;104725;1270;61735;-25
2022/05/31 05:01:17;;;;;;;3.70;2.40;;;;;;;14.86;73.26;99088.45;104638;1272;76614;-25
2022/05/31 05:03:47;;;;;;;4.00;2.90;;;;;;;15.50;71.69;99087.55;104753;1274;75819;-25
2022/05/31 05:06:15;;;;;;;9.20;5.90;;;;;;;15.62;70.55;99085.17;104760;1271;75721;-25
2022/05/31 05:08:44;;;;;;;10.10;7.60;;;;;;;15.51;70.51;99089.48;104734;1271;62780;-24
2022/05/31 05:11:14;;;;;;;8.00;5.20;;;;;;;15.31;70.88;99090.02;104707;1272;62812;-24
2022/05/31 05:13:50;;;;;;;5.90;3.50;;;;;;;15.11;70.86;99093.42;104641;1274;76903;-24
2022/05/31 05:16:56;;;;;;;3.50;3.20;;;;;;;14.89;71.23;99095.55;104588;1271;75773;-25
2022/05/31 05:19:24;;;;;;;4.70;1.80;;;;;;;14.79;72.28;99097.10;104724;1271;75464;-25
2022/05/31 05:21:56;;;;;;;2.60;2.20;;;;;;;15.29;71.22;99109.05;104707;1271;63072;-26
2022/05/31 05:24:24;;;;;;;3.00;2.00;;;;;;;15.82;67.58;99115.33;104792;1271;63302;-26
2022/05/31 05:27:07;;;;;;;;;;;;;;;16.00;68.55;99118.93;104784;1271;76746;-26
2022/05/31 05:32:39;;;;;;;2.70;2.40;;;;;;;15.77;69.05;99124.71;105081;1271;75400;-26
2022/05/31 05:35:15;;;;;;;5.40;2.70;;;;;;;15.69;68.11;99118.90;105086;1271;63350;-25
2022/05/31 05:37:47;;;;;;;3.50;2.70;;;;;;;15.51;69.24;99109.73;104968;1271;62388;-25
2022/05/31 05:40:16;;;;;;;6.00;3.50;;;;;;;15.47;68.70;99106.91;105056;1272;76820;-25
2022/05/31 05:42:53;;;;;;;5.80;3.70;;;;;;;15.37;68.13;99111.51;104938;1271;76473;-26
2022/05/31 05:45:34;;;;;;;4.50;2.90;;;;;;;15.39;69.00;99116.54;105054;1272;74351;-26
2022/05/31 05:48:01;;;;;;;4.50;3.00;;;;;;;16.00;67.05;99121.36;105071;1271;61124;-26
2022/05/31 05:50:33;;;;;;;4.50;2.80;;;;;;;16.67;66.16;99126.94;104890;1271;61687;-26
2022/05/31 05:53:08;;;;;;;11.10;6.10;;;;;;;16.81;65.26;99135.92;104571;1271;76411;-26
2022/05/31 05:55:53;;;;;;;7.40;4.80;;;;;;;16.74;64.31;99139.98;104646;1271;76975;-26
2022/05/31 05:58:59;;;;;;;5.00;3.20;;;;;;;16.55;65.71;99137.96;104213;1280;75970;-26
2022/05/31 06:01:47;;;;;;;11.00;4.40;;;;;;;16.50;64.77;99131.67;104183;1279;61933;-25
2022/05/31 06:04:50;;;;;;;6.10;2.40;;;;;;;16.38;64.27;99119.59;104626;1272;61038;-24
2022/05/31 06:07:17;;;;;;;4.20;2.90;;;;;;;16.23;64.52;99121.95;104665;1271;74646;-24
2022/05/31 06:09:57;;;;;;;4.90;2.90;;;;;;;16.18;66.30;99120.98;104754;1271;76160;-24
2022/05/31 06:12:27;;;;;;;4.70;2.30;;;;;;;16.03;64.81;99118.48;104631;1271;73279;-24
2022/05/31 06:15:15;;;;;;;2.10;1.50;;;;;;;16.03;65.18;99118.45;104698;1272;63718;-25
2022/05/31 06:17:44;;;;;;;2.10;1.50;;;;;;;16.60;62.19;99117.66;104845;1271;63011;-25
2022/05/31 06:20:12;;;;;;;3.00;1.80;;;;;;;17.09;61.74;99122.10;104515;1274;75267;-25
2022/05/31 06:22:40;;;;;;;2.30;1.90;;;;;;;17.20;62.07;99125.00;104613;1272;77023;-25
2022/05/31 06:25:20;;;;;;;3.10;2.00;;;;;;;17.06;60.99;99122.48;104783;1269;75824;-25
2022/05/31 06:27:55;;;;;;;3.50;1.80;;;;;;;16.56;60.88;99126.79;104860;1271;62361;-25
2022/05/31 06:30:23;;;;;;;1.60;1.50;;;;;;;16.33;62.31;99127.64;104943;1272;63056;-26
2022/05/31 06:32:50;;;;;;;2.30;1.90;;;;;;;16.17;61.85;99127.85;104748;1271;75907;-26
2022/05/31 06:35:18;;;;;;;2.00;1.60;;;;;;;16.20;62.85;99126.21;104797;1272;74781;-26
2022/05/31 06:37:57;;;;;;;2.40;1.50;;;;;;;16.42;62.59;99136.55;104769;1271;73539;-27
2022/05/31 06:40:24;;;;;;;2.40;1.70;;;;;;;16.73;62.03;99138.70;104581;1274;62535;-25
2022/05/31 06:43:11;;;;;;;2.00;1.50;;;;;;;17.12;61.71;99141.08;104830;1271;61840;-25
2022/05/31 06:46:08;;;;;;;5.50;2.70;;;;;;;17.20;59.45;99145.35;104886;1271;75553;-25
2022/05/31 06:48:54;;;;;;;2.10;1.90;;;;;;;17.44;59.99;99152.03;104647;1271;75944;-26
2022/05/31 06:57:50;;;;;;;3.40;1.40;;;;;;;17.29;54.88;99172.98;104759;1272;61966;-27
2022/05/31 07:00:37;;;;;;;2.40;1.40;;;;;;;17.16;56.33;99166.70;104787;1272;74793;-27
2022/05/31 07:03:12;;;;;;;1.40;1.30;;;;;;;17.16;58.75;99172.96;104921;1274;76087;-27
2022/05/31 07:05:40;;;;;;;5.70;2.30;;;;;;;17.20;58.92;99179.01;104954;1271;74429;-27
2022/05/31 07:08:16;;;;;;;2.00;1.60;;;;;;;17.16;57.68;99183.15;104748;1271;62271;-27
2022/05/31 07:11:00;;;;;;;3.60;1.60;;;;;;;17.17;58.90;99186.93;104769;1271;63092;-27
2022/05/31 07:13:47;;;;;;;3.40;1.70;;;;;;;17.17;59.02;99188.17;104596;1274;75607;-27
2022/05/31 07:16:24;;;;;;;4.20;1.50;;;;;;;17.19;58.62;99188.09;104757;1272;75921;-27
2022/05/31 07:19:10;;;;;;;2.70;1.40;;;;;;;17.11;57.49;99184.91;105034;1271;75459;-27
2022/05/31 07:21:41;;;;;;;1.70;1.50;;;;;;;17.03;57.69;99182.97;104916;1271;61653;-27
2022/05/31 07:24:09;;;;;;;3.20;1.90;;;;;;;17.05;60.35;99186.23;104781;1271;62706;-27
2022/05/31 07:26:39;;;;;;;3.20;1.70;;;;;;;17.13;59.77;99189.10;104732;1272;76754;-26
2022/05/31 07:29:07;;;;;;;2.70;1.70;;;;;;;17.18;59.11;99191.73;104848;1271;75425;-26
2022/05/31 07:31:35;;;;;;;1.90;1.70;;;;;;;17.17;59.90;99187.59;104734;1274;74476;-26
2022/05/31 07:34:24;;;;;;;1.90;1.70;;;;;;;17.21;59.93;99180.16;104798;1271;62990;-25
2022/05/31 07:36:51;;;;;;;2.90;1.50;;;;;;;17.23;61.14;99174.32;105037;1271;61941;-26
2022/05/31 07:39:19;;;;;;;1.80;1.70;;;;;;;17.20;61.79;99173.39;104951;1272;75248;-26
2022/05/31 07:41:48;;;;;;;1.60;1.50;;;;;;;17.23;62.88;99178.89;104670;1271;75618;-26
2022/05/31 07:44:16;;;;;;;1.60;1.40;;;;;;;17.24;62.74;99180.83;104628;1271;75309;-26
2022/05/31 07:46:44;;;;;;;3.80;2.20;;;;;;;17.21;62.41;99182.05;104914;1271;62393;-26
2022/05/31 07:49:12;;;;;;;1.80;1.70;;;;;;;17.16;63.78;99180.35;105136;1271;62507;-25
2022/05/31 07:51:48;;;;;;;6.40;1.90;;;;;;;17.16;63.60;99176.14;105082;1271;74685;-25
2022/05/31 07:54:35;;;;;;;1.60;1.10;;;;;;;17.18;64.80;99176.23;105064;1271;74770;-26
2022/05/31 08:00:46;;;;;;;2.90;1.60;;;;;;;18.62;60.06;99173.73;104548;1279;61889;-26
2022/05/31 08:03:13;;;;;;;1.70;1.50;;;;;;;18.73;60.21;99174.09;104758;1271;62980;-26
2022/05/31 08:05:41;;;;;;;2.80;1.60;;;;;;;18.95;60.59;99180.94;105110;1271;76317;-26
2022/05/31 08:08:09;;;;;;;2.50;1.50;;;;;;;19.19;59.14;99181.60;105140;1271;75991;-26
2022/05/31 08:10:57;;;;;;;3.70;1.60;;;;;;;19.45;58.16;99184.73;105097;1271;75119;-26
2022/05/31 08:13:25;;;;;;;4.10;2.50;;;;;;;19.75;57.05;99183.50;104947;1271;61959;-26
2022/05/31 08:15:52;;;;;;;3.50;2.20;;;;;;;20.04;57.96;99187.90;105127;1274;63093;-26
2022/05/31 08:18:20;;;;;;;2.50;2.30;;;;;;;20.45;56.39;99185.80;105091;1271;76599;-26
2022/05/31 08:20:47;;;;;;;2.10;1.90;;;;;;;20.44;55.27;99185.41;105085;1271;75517;-26
2022/05/31 08:23:14;;;;;;;2.20;1.90;;;;;;;20.48;54.80;99182.25;105030;1271;73368;-26
2022/05/31 08:25:41;;;;;;;4.50;2.10;;;;;;;20.31;54.49;99180.71;104859;1271;62731;-26
2022/05/31 08:28:09;;;;;;;2.20;1.80;;;;;;;20.44;54.78;99181.95;104917;1272;62882;-26
2022/05/31 08:30:36;;;;;;;2.90;2.00;;;;;;;20.66;53.80;99184.32;105078;1271;75244;-24
2022/05/31 08:33:04;;;;;;;5.60;2.50;;;;;;;20.54;51.25;99181.94;104924;1271;76975;-25
2022/05/31 08:35:31;;;;;;;2.10;1.30;;;;;;;20.47;51.34;99181.38;104743;1272;73514;-25
2022/05/31 08:38:18;;;;;;;2.60;1.60;;;;;;;20.48;49.94;99181.77;104796;1271;61818;-25
2022/05/31 08:41:06;;;;;;;4.90;3.30;;;;;;;20.50;51.33;99183.63;104996;1271;62139;-25
2022/05/31 08:43:47;;;;;;;4.10;2.00;;;;;;;20.50;51.60;99188.46;104748;1272;76563;-25
2022/05/31 08:46:42;;;;;;;7.90;2.10;;;;;;;20.44;51.38;99191.23;104634;1271;76375;-25
2022/05/31 08:49:23;;;;;;;2.40;1.40;;;;;;;20.46;51.14;99186.98;104820;1271;75338;-25
2022/05/31 08:52:04;;;;;;;2.60;1.70;;;;;;;20.48;52.13;99187.38;104834;1271;63152;-24
2022/05/31 08:57:44;;;;;;;1.70;1.30;;;;;;;20.42;50.98;99191.13;105027;1271;76718;-24
2022/05/31 09:00:18;;;;;;;3.40;1.30;;;;;;;20.30;51.36;99190.39;104858;1274;76753;-25
2022/05/31 09:03:07;;;;;;;2.90;1.10;;;;;;;20.19;50.69;99192.86;104755;1272;75505;-24
2022/05/31 09:05:37;;;;;;;2.70;1.30;;;;;;;20.01;50.32;99191.38;104691;1274;63084;-24
2022/05/31 09:08:42;;;;;;;2.80;1.10;;;;;;;19.77;50.63;99188.58;104731;1272;62855;-24
2022/05/31 09:11:27;;;;;;;1.70;1.50;;;;;;;19.42;50.54;99192.81;104919;1271;74508;-24
2022/05/31 09:14:10;;;;;;;5.30;2.90;;;;;;;19.37;52.87;99201.48;105108;1271;76549;-25
2022/05/31 09:16:50;;;;;;;3.00;1.70;;;;;;;19.38;52.46;99202.27;104789;1274;75215;-24
2022/05/31 09:19:23;;;;;;;4.10;1.90;;;;;;;19.33;52.21;99205.27;104612;1275;61038;-24
2022/05/31 09:21:50;;;;;;;2.50;1.90;;;;;;;18.71;53.31;99204.56;104782;1271;63051;-24
2022/05/31 09:24:19;;;;;;;3.20;1.60;;;;;;;18.12;54.05;99210.14;105093;1271;75385;-24
2022/05/31 09:26:54;;;;;;;3.50;1.70;;;;;;;18.30;53.53;99210.48;104743;1271;75525;-24
2022/05/31 09:29:23;;;;;;;1.80;1.50;;;;;;;18.66;54.08;99210.77;104643;1272;75129;-24
2022/05/31 09:32:29;;;;;;;4.20;1.50;;;;;;;18.68;52.87;99211.48;104626;1274;63231;-24
2022/05/31 09:35:17;;;;;;;3.10;1.70;;;;;;;18.73;53.49;99212.27;105062;1272;61888;-24
2022/05/31 09:38:19;;;;;;;2.00;1.40;;;;;;;18.81;53.57;99214.98;104697;1274;76726;-24
2022/05/31 09:40:49;;;;;;;2.40;2.20;;;;;;;18.87;53.89;99215.71;104785;1274;75962;-25
2022/05/31 09:43:30;;;;;;;2.40;1.60;;;;;;;19.01;53.64;99219.53;105075;1274;75421;-24
2022/05/31 09:46:13;;;;;;;1.70;1.30;;;;;;;19.21;52.57;99214.77;105073;1274;63145;-24
2022/05/31 09:48:46;;;;;;;8.10;4.10;;;;;;;19.36;52.93;99217.45;104725;1272;62780;-24
2022/05/31 09:51:18;;;;;;;2.30;1.70;;;;;;;19.47;51.64;99220.72;104700;1277;76662;-24
2022/05/31 09:57:13;;;;;;;1.70;1.60;;;;;;;19.89;50.31;99214.29;104472;1274;74254;-24
2022/05/31 10:00:16;;;;;;;3.00;2.20;;;;;;;19.89;50.40;99220.12;104533;1274;62079;-25
2022/05/31 10:03:02;;;;;;;5.00;2.10;;;;;;;20.36;51.01;99217.74;104974;1272;62763;-24
2022/05/31 10:05:29;;;;;;;2.00;1.50;;;;;;;20.23;51.27;99216.45;104763;1272;76893;-24
2022/05/31 10:07:57;;;;;;;2.90;1.50;;;;;;;20.62;48.85;99218.74;104748;1272;76197;-24
2022/05/31 10:10:31;;;;;;;2.60;1.90;;;;;;;21.04;48.47;99219.44;104605;1274;75444;-24
2022/05/31 10:13:09;;;;;;;3.40;3.10;;;;;;;20.49;49.88;99219.48;104604;1271;63402;-24
2022/05/31 10:15:50;;;;;;;2.80;1.70;;;;;;;20.11;49.99;99214.52;104584;1274;61828;-24
2022/05/31 10:18:27;;;;;;;2.90;1.80;;;;;;;20.92;49.36;99212.39;104753;1274;76560;-25
2022/05/31 10:20:57;;;;;;;2.80;1.80;;;;;;;21.70;47.92;99218.57;104667;1274;75981;-24
2022/05/31 10:23:34;;;;;;;2.60;1.70;;;;;;;22.06;47.79;99220.38;104691;1275;73756;-24
2022/05/31 10:26:28;;;;;;;2.80;1.40;;;;;;;22.84;45.30;99222.52;104700;1274;61800;-23
2022/05/31 10:29:27;;;;;;;1.70;1.60;;;;;;;22.88;43.13;99225.70;104725;1274;62251;-24
2022/05/31 10:32:43;;;;;;;2.50;1.10;;;;;;;22.79;42.78;99221.77;104722;1275;76490;-24
2022/05/31 10:35:21;;;;;;;2.60;1.90;;;;;;;23.03;41.50;99223.41;104803;1276;75950;-24
2022/05/31 10:38:19;;;;;;;2.40;1.50;;;;;;;22.55;43.80;99220.42;104748;1274;73966;-24
2022/05/31 10:41:00;;;;;;;4.70;1.40;;;;;;;23.15;43.44;99214.91;104684;1274;63033;-24
2022/05/31 10:43:30;;;;;;;1.80;1.60;;;;;;;23.32;43.76;99214.71;105063;1271;61611;-24
2022/05/31 10:45:58;;;;;;;4.60;2.20;;;;;;;23.65;42.40;99214.27;104957;1274;74922;-24
2022/05/31 10:48:26;;;;;;;2.30;1.30;;;;;;;23.77;41.98;99214.91;104687;1275;76036;-24
2022/05/31 10:51:27;;;;;;;2.40;1.30;;;;;;;23.57;40.84;99212.11;105063;1272;74563;-24
2022/05/31 10:54:20;;;;;;;3.80;1.40;;;;;;;23.57;41.78;99214.93;104685;1274;62093;-24
2022/05/31 10:57:00;;;;;;;1.50;1.30;;;;;;;23.63;40.26;99213.25;104851;1274;61178;-24
2022/05/31 10:59:44;;;;;;;9.20;1.60;;;;;;;23.40;40.07;99212.63;104742;1274;76724;-24
2022/05/31 11:02:29;;;;;;;1.60;1.20;;;;;;;23.34;41.31;99205.75;104438;1275;77020;-24
2022/05/31 11:05:07;;;;;;;2.40;1.40;;;;;;;22.63;43.14;99202.39;104745;1274;74708;-24
2022/05/31 11:11:28;;;;;;;1.30;1.20;;;;;;;23.48;37.96;99196.05;104248;1280;61959;-24
2022/05/31 11:13:59;;;;;;;1.00;0.90;;;;;;;23.60;39.33;99199.48;103863;1281;76358;-24
2022/05/31 11:16:54;;;;;;;2.60;1.60;;;;;;;23.78;39.70;99198.98;104227;1278;77015;-24
2022/05/31 11:19:48;;;;;;;1.90;1.30;;;;;;;24.04;39.20;99193.95;104154;1278;74372;-24
2022/05/31 11:22:38;;;;;;;2.30;1.70;;;;;;;23.96;40.11;99193.76;104163;1280;62940;-24
2022/05/31 11:25:24;;;;;;;1.60;1.20;;;;;;;23.93;42.38;99193.31;104208;1279;62223;-24
2022/05/31 11:28:08;;;;;;;3.60;1.70;;;;;;;24.04;40.07;99194.17;104225;1281;75658;-24
2022/05/31 11:30:39;;;;;;;4.50;3.00;;;;;;;23.85;41.41;99199.02;104210;1280;77426;-24
2022/05/31 11:33:26;;;;;;;2.80;1.90;;;;;;;22.54;41.24;99205.28;104226;1278;75497;-24
2022/05/31 11:36:30;;;;;;;3.40;2.80;;;;;;;21.78;43.24;99204.15;104153;1278;63136;-24
2022/05/31 11:39:06;;;;;;;1.80;1.50;;;;;;;22.66;42.35;99200.23;104260;1280;61106;-24
2022/05/31 11:42:13;;;;;;;8.60;4.30;;;;;;;22.90;40.32;99197.06;104191;1281;75441;-24
2022/05/31 11:45:08;;;;;;;4.20;2.80;;;;;;;21.60;41.05;99198.83;104427;1272;75182;-24
2022/05/31 11:47:50;;;;;;;4.60;2.30;;;;;;;21.72;41.64;99198.25;104885;1274;74383;-24
2022/05/31 11:50:41;;;;;;;1.70;1.50;;;;;;;22.31;41.89;99197.31;104665;1274;63032;-24
2022/05/31 11:53:27;;;;;;;4.50;1.80;;;;;;;22.16;40.40;99197.80;104636;1275;63063;-24
2022/05/31 11:56:17;;;;;;;5.10;1.80;;;;;;;22.40;40.04;99194.95;104732;1271;75605;-24
2022/05/31 11:58:47;;;;;;;1.20;1.10;;;;;;;22.84;40.52;99197.55;104486;1274;340209;-24
2022/05/31 12:01:26;;;;;;;3.60;1.50;;;;;;;22.77;40.01;99193.84;104610;1278;75552;-24
2022/05/31 12:04:09;;;;;;;10.10;4.10;;;;;;;22.31;39.45;99195.23;104740;1274;62024;-24
2022/05/31 12:07:10;;;;;;;2.60;1.30;;;;;;;22.48;39.54;99195.63;104747;1271;62004;-24
2022/05/31 12:09:45;;;;;;;18.40;7.70;;;;;;;22.60;39.53;99188.11;104696;1271;75339;-24
2022/05/31 12:12:23;;;;;;;10.30;5.30;;;;;;;21.78;40.87;99194.92;104505;1272;76975;-24
2022/05/31 12:14:53;;;;;;;4.10;2.20;;;;;;;22.37;40.88;99193.30;104628;1274;74234;-24
2022/05/31 12:17:22;;;;;;;1.90;1.50;;;;;;;22.44;40.08;99191.57;104675;1272;63058;-24
2022/05/31 12:20:04;;;;;;;6.30;2.10;;;;;;;22.81;39.54;99192.83;104779;1277;61667;-24
2022/05/31 12:22:42;;;;;;;3.90;1.30;;;;;;;22.26;40.15;99186.11;104699;1277;76542;-24
2022/05/31 12:25:13;;;;;;;4.30;1.20;;;;;;;22.45;41.93;99188.83;104613;1272;76714;-24
2022/05/31 12:27:47;;;;;;;6.60;3.40;;;;;;;22.81;41.22;99184.41;104672;1274;74493;-24
2022/05/31 12:30:31;;;;;;;7.90;4.50;;;;;;;22.70;40.85;99186.33;104703;1272;61781;-24
2022/05/31 12:32:58;;;;;;;10.20;3.40;;;;;;;21.86;40.20;99193.31;104783;1272;63040;-24
2022/05/31 12:35:32;;;;;;;4.50;1.80;;;;;;;21.71;40.33;99193.37;104924;1271;76305;-24